Time;durP1;ratioP1;P1;durP2;ratioP2;P2;SDS_P1;SDS_P2;PMS_P1;PMS_P2;Temp;Humidity;BMP_temperature;BMP_pressure;BME280_temperature;BME280_humidity;BME280_pressure;Samples;Min_cycle;Max_cycle;Signal;HPM_P1;HPM_P2
2023/09/21 00:01:05;;;;;;;9.27;3.70;;;;;;;21.62;60.19;99436.59;5000325;28;20084;-65
2023/09/21 00:03:32;;;;;;;7.70;4.30;;;;;;;21.67;60.54;99436.75;5016634;28;20104;-64
2023/09/21 00:06:00;;;;;;;7.00;3.70;;;;;;;21.63;60.28;99454.50;5016581;28;20044;-64
2023/09/21 00:08:26;;;;;;;10.73;3.55;;;;;;;21.60;60.73;99444.16;4967788;28;20053;-64
2023/09/21 00:10:53;;;;;;;9.02;3.92;;;;;;;21.65;60.58;99444.25;4983730;28;20156;-64
2023/09/21 00:13:26;;;;;;;8.40;3.90;;;;;;;21.60;60.90;99449.56;5016705;28;20168;-64
2023/09/21 00:15:54;;;;;;;7.38;3.55;;;;;;;21.62;60.85;99447.41;5032079;28;20061;-63
2023/09/21 00:18:23;;;;;;;5.72;3.75;;;;;;;21.53;61.14;99449.66;5017641;28;20088;-65
2023/09/21 00:20:53;;;;;;;5.63;3.80;;;;;;;21.57;61.28;99448.13;5033823;28;20080;-65
2023/09/21 00:23:21;;;;;;;7.22;3.72;;;;;;;21.54;61.67;99447.78;5001384;28;20049;-65
2023/09/21 00:25:48;;;;;;;7.93;4.07;;;;;;;21.38;63.00;99440.34;4985202;28;20473;-64
2023/09/21 00:28:14;;;;;;;8.93;4.20;;;;;;;21.33;63.52;99442.91;5000786;28;20049;-65
2023/09/21 00:30:44;;;;;;;8.10;4.53;;;;;;;21.49;63.43;99445.78;5000846;28;20144;-65
2023/09/21 00:33:11;;;;;;;9.05;4.18;;;;;;;21.46;63.41;99440.00;5001056;28;20389;-65
2023/09/21 00:35:39;;;;;;;10.75;4.20;;;;;;;21.44;63.97;99447.53;5033693;28;20068;-65
2023/09/21 00:38:09;;;;;;;7.43;4.20;;;;;;;21.47;64.46;99453.28;5033205;28;20606;-65
2023/09/21 00:40:38;;;;;;;8.60;4.22;;;;;;;21.40;65.18;99444.44;5017008;28;20077;-65
2023/09/21 00:43:06;;;;;;;5.82;4.10;;;;;;;21.43;64.97;99454.00;5033573;28;20037;-65
2023/09/21 00:45:42;;;;;;;11.63;4.57;;;;;;;21.40;66.03;99449.84;5016853;28;20056;-65
2023/09/21 00:48:12;;;;;;;8.23;4.40;;;;;;;21.37;66.77;99463.81;5033936;28;20046;-65
2023/09/21 00:50:41;;;;;;;9.45;4.60;;;;;;;21.43;67.29;99454.00;5003060;28;20153;-65
2023/09/21 00:53:13;;;;;;;11.45;5.00;;;;;;;21.44;67.59;99459.16;4997102;28;20132;-65
2023/09/21 00:55:40;;;;;;;8.13;4.93;;;;;;;21.33;68.59;99448.31;4996876;28;20046;-65
2023/09/21 00:58:09;;;;;;;14.90;4.90;;;;;;;21.41;69.68;99443.41;4997266;28;20112;-64
2023/09/21 01:00:36;;;;;;;9.85;4.70;;;;;;;21.40;69.94;99459.84;4996298;28;20046;-64
2023/09/21 01:03:11;;;;;;;9.60;4.85;;;;;;;21.39;70.30;99452.78;5013875;28;20077;-65
2023/09/21 01:05:40;;;;;;;10.07;5.32;;;;;;;21.42;70.58;99465.84;4982085;28;20049;-63
2023/09/21 01:08:11;;;;;;;10.63;5.05;;;;;;;21.35;71.49;99460.56;5013151;28;20073;-64
2023/09/21 01:10:41;;;;;;;8.35;4.97;;;;;;;21.34;71.81;99458.09;4980449;28;20046;-65
2023/09/21 01:13:11;;;;;;;16.15;5.93;;;;;;;21.01;73.28;99457.72;5012815;28;20398;-66
2023/09/21 01:15:38;;;;;;;11.30;5.38;;;;;;;21.06;73.88;99468.69;4981004;28;20050;-66
2023/09/21 01:18:04;;;;;;;7.30;5.20;;;;;;;21.14;73.96;99485.38;4996427;28;20115;-64
2023/09/21 01:20:32;;;;;;;15.60;6.47;;;;;;;21.11;74.70;99468.81;4980347;28;20069;-65
2023/09/21 01:23:17;;;;;;;10.50;5.57;;;;;;;21.21;75.44;99466.38;4996654;28;20054;-65
2023/09/21 01:25:44;;;;;;;10.00;5.85;;;;;;;21.34;74.73;99475.09;4996702;28;20045;-64
2023/09/21 01:28:16;;;;;;;12.13;5.38;;;;;;;21.15;76.04;99487.03;4996460;28;20520;-65
2023/09/21 01:30:43;;;;;;;10.73;5.63;;;;;;;21.10;76.79;99481.50;4996808;28;20136;-65
2023/09/21 01:33:11;;;;;;;11.82;6.05;;;;;;;21.00;77.75;99478.50;4962987;28;20053;-65
2023/09/21 01:35:38;;;;;;;16.33;6.38;;;;;;;20.99;78.59;99474.16;4996479;28;20124;-65
2023/09/21 01:38:08;;;;;;;13.63;6.15;;;;;;;21.00;79.08;99480.41;4996442;28;20046;-64
2023/09/21 01:40:34;;;;;;;11.60;6.13;;;;;;;21.06;78.88;99477.63;4980405;28;20046;-64
2023/09/21 01:43:08;;;;;;;11.60;6.32;;;;;;;21.22;78.44;99485.06;5012388;28;20434;-65
2023/09/21 01:45:37;;;;;;;10.63;6.72;;;;;;;21.06;79.60;99491.13;5012428;28;20054;-64
2023/09/21 01:48:08;;;;;;;10.05;6.25;;;;;;;21.18;79.05;99485.75;5012430;28;20054;-64
2023/09/21 01:50:43;;;;;;;;;;;;;;;21.24;78.98;99485.66;5012636;28;20061;-65
2023/09/21 01:53:12;;;;;;;14.43;6.40;;;;;;;21.14;79.71;99492.66;4979959;28;19925;-65
2023/09/21 01:55:40;;;;;;;12.43;6.18;;;;;;;21.21;79.63;99494.22;4996036;28;20136;-65
2023/09/21 01:58:09;;;;;;;14.98;6.75;;;;;;;21.22;79.92;99490.44;4995899;28;20050;-65
2023/09/21 02:00:39;;;;;;;9.75;6.78;;;;;;;21.10;80.86;99491.47;4979856;28;20389;-65
2023/09/21 02:03:12;;;;;;;11.73;6.78;;;;;;;21.11;81.15;99496.63;5012225;28;20064;-65
2023/09/21 02:05:39;;;;;;;19.00;6.97;;;;;;;21.15;80.87;99503.25;4980413;28;20079;-65
2023/09/21 02:08:07;;;;;;;10.85;6.85;;;;;;;21.23;80.92;99489.38;4995791;28;20104;-64
2023/09/21 02:10:38;;;;;;;9.50;6.38;;;;;;;21.23;81.34;99494.00;4995299;28;20046;-63
2023/09/21 02:13:05;;;;;;;8.73;6.22;;;;;;;21.22;81.36;99493.16;4979483;28;20084;-64
2023/09/21 02:15:34;;;;;;;12.63;6.28;;;;;;;21.27;81.25;99496.00;5011765;28;20046;-64
2023/09/21 02:18:02;;;;;;;13.15;7.10;;;;;;;21.29;80.76;99493.91;5011802;28;20073;-64
2023/09/21 02:20:30;;;;;;;9.35;6.47;;;;;;;21.30;81.22;99490.13;4995554;28;20092;-65
2023/09/21 02:22:58;;;;;;;12.40;7.45;;;;;;;21.22;81.92;99501.25;5012020;28;20042;-65
2023/09/21 02:25:34;;;;;;;11.63;7.20;;;;;;;21.22;82.35;99505.81;5011826;28;20042;-66
2023/09/21 02:28:09;;;;;;;12.23;7.13;;;;;;;21.21;82.30;99501.50;4995901;28;20054;-65
2023/09/21 02:30:37;;;;;;;11.55;7.43;;;;;;;21.25;82.91;99498.09;4995142;28;20064;-65
2023/09/21 02:33:09;;;;;;;11.80;7.05;;;;;;;21.24;83.16;99501.03;4995093;28;20074;-66
2023/09/21 02:35:40;;;;;;;12.90;7.47;;;;;;;21.14;83.61;99500.78;4980070;28;20495;-66
2023/09/21 02:38:09;;;;;;;9.77;6.90;;;;;;;21.16;84.00;99501.34;4979148;28;20037;-65
2023/09/21 02:40:36;;;;;;;14.10;7.40;;;;;;;21.13;84.42;99509.91;4995185;28;20045;-66
2023/09/21 02:43:03;;;;;;;16.42;7.28;;;;;;;21.17;84.30;99513.81;4979104;28;20045;-65
2023/09/21 02:45:30;;;;;;;14.13;7.78;;;;;;;21.10;84.56;99511.19;5027624;28;20053;-67
2023/09/21 02:48:00;;;;;;;14.70;8.65;;;;;;;21.10;85.20;99503.09;4979260;28;20042;-65
2023/09/21 02:50:28;;;;;;;11.27;7.43;;;;;;;21.14;85.65;99501.56;4980868;28;20058;-65
2023/09/21 02:53:10;;;;;;;14.23;8.35;;;;;;;21.16;86.13;99504.88;5011336;28;20084;-65
2023/09/21 02:55:39;;;;;;;13.07;7.82;;;;;;;21.00;86.82;99502.00;4994812;28;20038;-65
2023/09/21 02:58:10;;;;;;;11.43;7.68;;;;;;;21.00;87.56;99499.28;4994864;28;20537;-66
2023/09/21 03:00:44;;;;;;;18.75;8.70;;;;;;;20.98;88.57;99507.63;5011281;28;20045;-65
2023/09/21 03:03:12;;;;;;;11.65;8.15;;;;;;;20.86;89.32;99501.31;5010700;28;20454;-65
2023/09/21 03:05:40;;;;;;;18.08;8.43;;;;;;;20.87;89.39;99499.41;4979191;28;20509;-65
2023/09/21 03:08:13;;;;;;;18.92;9.27;;;;;;;20.82;90.04;99510.91;5010964;28;20143;-65
2023/09/21 03:10:49;;;;;;;13.40;8.85;;;;;;;20.93;90.71;99515.56;4995849;28;20137;-65
2023/09/21 03:13:17;;;;;;;13.50;9.32;;;;;;;20.88;90.48;99514.59;4978574;28;20045;-67
2023/09/21 03:15:51;;;;;;;16.20;9.05;;;;;;;20.88;90.41;99518.09;4978816;28;20381;-65
2023/09/21 03:18:23;;;;;;;13.15;9.20;;;;;;;20.96;89.94;99528.63;4994741;28;20046;-65
2023/09/21 03:20:51;;;;;;;14.82;8.57;;;;;;;20.93;89.86;99525.50;4994756;28;20145;-65
2023/09/21 03:23:18;;;;;;;11.55;8.23;;;;;;;20.93;90.15;99533.63;4994675;28;20044;-65
2023/09/21 03:25:50;;;;;;;13.38;8.70;;;;;;;21.01;90.09;99531.47;4997903;28;20054;-66
2023/09/21 03:28:18;;;;;;;16.67;8.60;;;;;;;21.10;89.87;99538.22;5014941;28;20046;-65
2023/09/21 03:30:47;;;;;;;16.67;8.90;;;;;;;21.06;89.84;99536.19;5014737;28;20397;-66
2023/09/21 03:33:17;;;;;;;17.05;9.30;;;;;;;20.85;90.92;99537.44;4982242;28;20045;-65
2023/09/21 03:35:43;;;;;;;14.18;8.77;;;;;;;20.70;91.37;99547.81;4982622;28;20149;-65
2023/09/21 03:38:12;;;;;;;15.23;9.02;;;;;;;20.62;92.44;99539.19;4966211;28;20570;-66
2023/09/21 03:40:41;;;;;;;15.43;9.20;;;;;;;20.61;92.78;99545.63;4998521;28;20107;-66
2023/09/21 03:43:14;;;;;;;13.38;9.52;;;;;;;20.56;93.33;99548.19;5014702;28;20046;-67
2023/09/21 03:45:43;;;;;;;15.27;10.10;;;;;;;20.53;93.56;99551.31;4998359;28;20462;-65
2023/09/21 03:48:12;;;;;;;14.13;9.75;;;;;;;20.55;93.69;99551.94;4998274;28;20390;-65
2023/09/21 03:50:40;;;;;;;;;;;;;;;20.62;94.06;99558.91;4998645;28;20061;-65
2023/09/21 03:53:08;;;;;;;16.55;9.55;;;;;;;20.51;94.16;99559.63;4998300;28;20020;-65
2023/09/21 03:55:36;;;;;;;19.80;9.40;;;;;;;20.43;94.66;99561.81;4998667;28;20466;-65
2023/09/21 03:58:03;;;;;;;16.50;9.68;;;;;;;20.38;95.22;99562.47;5014409;28;20492;-65
2023/09/21 04:00:29;;;;;;;14.98;10.13;;;;;;;20.31;95.63;99561.72;4998501;28;20041;-65
2023/09/21 04:03:00;;;;;;;14.50;10.48;;;;;;;20.27;97.09;99563.22;4981827;28;20139;-65
2023/09/21 04:05:33;;;;;;;15.38;10.85;;;;;;;20.30;97.50;99562.75;4997808;28;20363;-66
2023/09/21 04:08:00;;;;;;;21.63;10.88;;;;;;;20.28;97.15;99564.84;5014274;28;20049;-66
2023/09/21 04:10:26;;;;;;;19.15;10.98;;;;;;;20.39;97.02;99569.50;4997748;28;20124;-69
2023/09/21 04:12:56;;;;;;;18.40;11.00;;;;;;;20.43;97.23;99567.22;4981601;28;20045;-68
2023/09/21 04:15:24;;;;;;;14.70;10.50;;;;;;;20.49;96.54;99569.00;4982044;28;20045;-70
2023/09/21 04:17:52;;;;;;;18.70;10.65;;;;;;;20.49;96.68;99579.81;4965541;28;20136;-68
2023/09/21 04:20:19;;;;;;;13.35;9.82;;;;;;;20.47;96.44;99573.78;4965283;28;20038;-69
2023/09/21 04:22:47;;;;;;;21.70;10.65;;;;;;;20.47;96.98;99579.19;4965222;28;20046;-68
2023/09/21 04:25:16;;;;;;;24.45;11.05;;;;;;;20.50;96.91;99579.59;4981022;28;20042;-71
2023/09/21 04:27:44;;;;;;;19.08;10.63;;;;;;;20.49;97.05;99585.19;4981284;28;20044;-70
2023/09/21 04:30:15;;;;;;;15.30;10.80;;;;;;;20.42;97.32;99587.16;4965295;28;20111;-70
2023/09/21 04:32:46;;;;;;;17.17;10.85;;;;;;;20.40;98.14;99579.28;4997578;28;20133;-70
2023/09/21 04:35:18;;;;;;;16.40;10.57;;;;;;;20.52;97.55;99587.44;4996571;28;20100;-70
2023/09/21 04:37:56;;;;;;;19.02;11.18;;;;;;;20.58;97.07;99582.00;5014115;28;20052;-69
2023/09/21 04:40:28;;;;;;;21.77;11.00;;;;;;;20.56;97.46;99584.06;5016638;28;20049;-68
2023/09/21 04:42:56;;;;;;;20.73;11.13;;;;;;;20.47;97.04;99588.13;4981734;28;20042;-73
2023/09/21 04:45:26;;;;;;;19.00;11.30;;;;;;;20.45;97.25;99589.41;4997322;28;20057;-67
2023/09/21 04:48:00;;;;;;;16.80;10.60;;;;;;;20.49;97.57;99593.28;4997506;28;20064;-71
2023/09/21 04:50:27;;;;;;;15.57;10.10;;;;;;;20.44;97.44;99587.72;4991525;28;20053;-67
2023/09/21 04:52:54;;;;;;;22.55;11.13;;;;;;;20.59;97.25;99593.63;5000395;28;20476;-67
2023/09/21 04:55:22;;;;;;;16.40;11.18;;;;;;;20.65;96.79;99604.31;4984837;28;20037;-66
2023/09/21 04:57:48;;;;;;;17.27;10.40;;;;;;;20.62;96.83;99598.56;5016562;28;20559;-66
2023/09/21 05:00:15;;;;;;;14.35;10.38;;;;;;;20.63;96.99;99601.03;5000340;28;20071;-67
2023/09/21 05:02:44;;;;;;;15.90;10.88;;;;;;;20.68;96.95;99594.97;4983464;28;20103;-67
2023/09/21 05:05:14;;;;;;;18.50;10.30;;;;;;;20.76;96.51;99600.88;4998908;28;20084;-68
2023/09/21 05:07:44;;;;;;;21.17;10.82;;;;;;;20.90;95.99;99606.97;5000789;28;20041;-67
2023/09/21 05:10:14;;;;;;;21.60;10.40;;;;;;;20.97;95.75;99615.88;4994046;28;20081;-67
2023/09/21 05:12:41;;;;;;;17.10;10.50;;;;;;;20.95;95.80;99605.28;4947986;28;20505;-67
2023/09/21 05:15:08;;;;;;;20.15;11.52;;;;;;;20.86;95.86;99612.00;4963710;28;20058;-67
2023/09/21 05:17:38;;;;;;;22.52;11.48;;;;;;;20.98;95.57;99612.09;4980490;28;20624;-67
2023/09/21 05:20:05;;;;;;;18.95;10.95;;;;;;;21.06;95.44;99609.94;4979565;28;20394;-67
2023/09/21 05:22:32;;;;;;;20.08;11.05;;;;;;;21.07;95.03;99618.84;4979772;28;20069;-67
2023/09/21 05:25:00;;;;;;;19.85;10.05;;;;;;;21.13;94.74;99615.25;4979202;28;20037;-67
2023/09/21 05:27:29;;;;;;;21.13;12.38;;;;;;;21.18;94.13;99618.09;4964030;28;20081;-67
2023/09/21 05:29:57;;;;;;;28.63;12.20;;;;;;;21.20;94.24;99613.31;4995335;28;20438;-67
2023/09/21 05:32:24;;;;;;;28.08;11.52;;;;;;;21.30;93.73;99614.41;4963514;28;20165;-67
2023/09/21 05:34:52;;;;;;;21.58;10.63;;;;;;;21.39;93.37;99623.00;4963136;28;20505;-68
2023/09/21 05:37:19;;;;;;;18.08;10.35;;;;;;;21.53;92.76;99619.09;4995219;28;20049;-68
2023/09/21 05:39:46;;;;;;;18.08;9.90;;;;;;;21.66;92.09;99627.03;4962592;28;20042;-67
2023/09/21 05:42:18;;;;;;;18.85;9.85;;;;;;;21.82;91.62;99623.69;4978988;28;20478;-67
2023/09/21 05:44:45;;;;;;;18.58;9.90;;;;;;;21.79;91.08;99621.44;4963571;28;20045;-67
2023/09/21 05:47:12;;;;;;;13.88;9.90;;;;;;;21.76;90.87;99629.22;4989232;28;20515;-67
2023/09/21 05:49:39;;;;;;;20.02;10.18;;;;;;;21.81;90.71;99632.03;4999376;28;20092;-69
2023/09/21 05:52:11;;;;;;;18.98;10.00;;;;;;;21.83;90.42;99630.78;4999510;28;20052;-67
2023/09/21 05:54:40;;;;;;;17.00;10.13;;;;;;;21.87;90.46;99634.66;5016467;28;20489;-67
2023/09/21 05:57:07;;;;;;;17.48;10.07;;;;;;;21.89;90.53;99643.38;4999645;28;20041;-67
2023/09/21 05:59:33;;;;;;;19.63;11.02;;;;;;;21.91;90.48;99645.84;4995273;28;20088;-67
2023/09/21 06:01:59;;;;;;;23.77;10.20;;;;;;;21.98;90.13;99650.09;5029987;28;20045;-66
2023/09/21 06:04:26;;;;;;;14.75;9.63;;;;;;;22.18;89.43;99644.38;5013840;28;20148;-66
2023/09/21 06:06:58;;;;;;;18.27;9.90;;;;;;;22.20;88.72;99651.22;4984571;28;20098;-66
2023/09/21 06:09:24;;;;;;;15.55;9.48;;;;;;;22.40;88.05;99648.97;5022534;28;20053;-67
2023/09/21 06:11:52;;;;;;;18.63;9.77;;;;;;;22.57;87.00;99660.00;5002735;28;20111;-67
2023/09/21 06:14:22;;;;;;;19.17;9.15;;;;;;;22.62;85.91;99658.22;4985608;28;20049;-66
2023/09/21 06:16:51;;;;;;;20.67;9.60;;;;;;;22.88;85.75;99665.88;4989322;28;20084;-66
2023/09/21 06:19:19;;;;;;;13.93;9.30;;;;;;;23.04;85.03;99667.03;4987696;28;20049;-66
2023/09/21 06:21:48;;;;;;;16.23;9.00;;;;;;;23.16;83.78;99670.53;4972319;28;20052;-67
2023/09/21 06:24:15;;;;;;;13.20;8.35;;;;;;;23.27;82.91;99676.00;4976371;28;20056;-67
2023/09/21 06:26:41;;;;;;;13.85;7.85;;;;;;;23.32;81.65;99672.56;5003135;28;20048;-67
2023/09/21 06:29:08;;;;;;;14.02;7.80;;;;;;;23.45;80.22;99680.41;4972570;28;20056;-67
2023/09/21 06:31:34;;;;;;;14.15;8.10;;;;;;;23.59;79.80;99678.28;5028588;28;20370;-66
2023/09/21 06:34:07;;;;;;;13.18;8.77;;;;;;;23.84;78.52;99671.44;5014504;28;20046;-67
2023/09/21 06:36:34;;;;;;;14.80;8.68;;;;;;;23.95;77.19;99686.84;4994599;28;20497;-67
2023/09/21 06:38:59;;;;;;;13.00;8.40;;;;;;;24.05;76.68;99684.34;5012155;28;20052;-67
2023/09/21 06:41:28;;;;;;;14.25;8.38;;;;;;;24.13;75.04;99683.13;4996723;28;20037;-68
2023/09/21 06:43:55;;;;;;;13.13;8.50;;;;;;;24.13;74.39;99683.13;4998815;28;20052;-67
2023/09/21 06:46:24;;;;;;;12.77;8.43;;;;;;;24.22;74.75;99679.75;5020248;28;20045;-67
2023/09/21 06:48:53;;;;;;;20.23;8.73;;;;;;;24.34;73.55;99685.13;5002115;28;20084;-67
2023/09/21 06:51:19;;;;;;;17.40;8.27;;;;;;;24.42;72.80;99687.41;4937404;28;20041;-67
2023/09/21 06:53:48;;;;;;;35.55;9.38;;;;;;;24.65;72.23;99684.53;4912874;28;20074;-66
2023/09/21 06:56:14;;;;;;;14.32;8.02;;;;;;;24.95;70.47;99681.50;4929373;28;20062;-69
2023/09/21 06:58:41;;;;;;;13.82;7.50;;;;;;;25.37;68.63;99688.91;4934780;28;20106;-66
2023/09/21 07:01:09;;;;;;;19.35;7.55;;;;;;;25.78;65.92;99682.91;4891533;28;20102;-67
2023/09/21 07:03:36;;;;;;;25.30;8.07;;;;;;;26.01;62.78;99682.66;4914261;28;20490;-67
2023/09/21 07:06:02;;;;;;;13.80;7.55;;;;;;;26.23;61.95;99686.13;4945651;28;20121;-67
2023/09/21 07:08:28;;;;;;;13.40;7.65;;;;;;;26.26;60.66;99682.06;4909235;28;20074;-66
2023/09/21 07:10:54;;;;;;;14.50;6.93;;;;;;;26.46;59.71;99680.31;4910449;28;20101;-66
2023/09/21 07:13:24;;;;;;;26.90;8.43;;;;;;;26.97;58.33;99676.09;4909772;28;20050;-67
2023/09/21 07:15:52;;;;;;;15.80;6.90;;;;;;;26.84;57.54;99673.84;4894761;28;20599;-67
2023/09/21 07:18:20;;;;;;;12.73;7.55;;;;;;;27.68;55.85;99675.38;4933520;28;20030;-68
2023/09/21 07:20:46;;;;;;;15.80;7.10;;;;;;;28.51;53.52;99667.94;4933192;28;20089;-67
2023/09/21 07:23:13;;;;;;;21.75;7.00;;;;;;;29.78;49.13;99670.09;4948221;28;20041;-70
2023/09/21 07:25:39;;;;;;;29.70;7.93;;;;;;;31.06;44.74;99674.06;4975748;28;20045;-66
2023/09/21 07:28:06;;;;;;;13.38;6.00;;;;;;;31.58;42.48;99670.47;4977644;28;20128;-67
2023/09/21 07:30:34;;;;;;;12.18;6.32;;;;;;;31.54;41.02;99683.16;4984243;28;20041;-68
2023/09/21 07:33:00;;;;;;;13.73;6.10;;;;;;;32.67;38.68;99684.50;5002125;28;20548;-68
2023/09/21 07:35:27;;;;;;;14.52;7.40;;;;;;;33.22;36.42;99687.41;4970048;28;20050;-68
2023/09/21 07:37:56;;;;;;;15.93;5.60;;;;;;;33.44;36.11;99684.81;4965031;28;20057;-68
2023/09/21 07:40:23;;;;;;;12.52;5.80;;;;;;;33.69;35.08;99684.28;4962314;28;20046;-67
2023/09/21 07:42:51;;;;;;;9.88;6.53;;;;;;;33.54;34.36;99690.09;4994400;28;20382;-67
2023/09/21 07:45:22;;;;;;;14.40;6.68;;;;;;;32.98;34.22;99684.03;4978498;28;20077;-66
2023/09/21 07:47:49;;;;;;;15.43;6.78;;;;;;;32.63;35.37;99688.16;4977620;28;20401;-67
2023/09/21 07:50:18;;;;;;;18.10;6.60;;;;;;;33.03;34.68;99681.97;4942898;28;20053;-67
2023/09/21 07:52:45;;;;;;;14.00;5.80;;;;;;;32.47;34.85;99697.81;4993633;28;20065;-69
2023/09/21 07:55:11;;;;;;;9.73;5.57;;;;;;;30.84;36.86;99687.47;4961496;28;20056;-68
2023/09/21 07:57:39;;;;;;;14.90;6.30;;;;;;;29.79;39.38;99685.41;4993395;28;20133;-67
2023/09/21 08:00:09;;;;;;;16.83;6.72;;;;;;;28.57;43.13;99692.25;4977470;28;20081;-66
2023/09/21 08:02:35;;;;;;;17.13;7.78;;;;;;;28.40;44.49;99686.19;4977117;28;20060;-66
2023/09/21 08:05:09;;;;;;;22.77;8.18;;;;;;;27.37;47.09;99683.72;4945085;28;20608;-66
2023/09/21 08:07:37;;;;;;;14.35;7.80;;;;;;;27.25;49.26;99681.22;4962417;28;20053;-66
2023/09/21 08:10:04;;;;;;;14.75;7.60;;;;;;;26.95;49.92;99688.38;4993437;28;20033;-66
2023/09/21 08:12:36;;;;;;;15.13;7.78;;;;;;;26.55;51.18;99690.75;4998049;28;20119;-66
2023/09/21 08:15:06;;;;;;;20.08;7.38;;;;;;;26.49;52.13;99687.97;4961272;28;20046;-65
2023/09/21 08:17:36;;;;;;;13.63;8.10;;;;;;;26.72;51.80;99694.19;4961596;28;20054;-67
2023/09/21 08:20:09;;;;;;;23.08;8.50;;;;;;;26.88;51.38;99687.78;4980826;28;20079;-66
2023/09/21 08:22:37;;;;;;;13.85;7.40;;;;;;;26.39;52.05;99696.06;4922803;29;20479;-66
2023/09/21 08:25:05;;;;;;;15.18;7.90;;;;;;;26.08;52.93;99685.13;4907185;29;20542;-64
2023/09/21 08:27:32;;;;;;;17.05;7.97;;;;;;;26.81;52.10;99687.16;4922771;29;20053;-65
2023/09/21 08:29:59;;;;;;;15.85;8.20;;;;;;;26.83;52.15;99695.91;4906464;29;20050;-66
2023/09/21 08:32:25;;;;;;;15.65;7.13;;;;;;;26.96;50.84;99703.63;4922657;29;20086;-67
2023/09/21 08:34:52;;;;;;;20.98;7.35;;;;;;;27.10;50.51;99705.63;4906808;28;20484;-66
2023/09/21 08:37:18;;;;;;;15.35;7.60;;;;;;;26.96;50.84;99706.34;4890964;29;20054;-66
2023/09/21 08:39:45;;;;;;;14.50;6.88;;;;;;;26.78;51.52;99704.88;4938678;29;20403;-66
2023/09/21 08:42:12;;;;;;;13.30;6.95;;;;;;;26.65;52.00;99704.50;4922836;29;20063;-67
2023/09/21 08:44:43;;;;;;;13.45;6.97;;;;;;;26.88;51.83;99707.66;4922504;29;20256;-67
2023/09/21 08:47:13;;;;;;;16.98;6.53;;;;;;;26.25;54.12;99694.84;4944439;28;20398;-68
2023/09/21 08:49:48;;;;;;;16.23;7.22;;;;;;;26.27;54.59;99700.03;4930780;28;20042;-67
2023/09/21 08:52:14;;;;;;;14.20;7.53;;;;;;;25.82;55.77;99705.81;4964091;28;20056;-66
2023/09/21 08:54:42;;;;;;;19.52;8.23;;;;;;;25.61;56.59;99703.94;5020004;28;20049;-66
2023/09/21 08:57:13;;;;;;;26.23;8.23;;;;;;;25.38;57.84;99703.34;5005005;28;20136;-66
2023/09/21 09:00:08;;;;;;;14.30;7.25;;;;;;;25.40;58.61;99718.31;4999745;28;20042;-67
2023/09/21 09:03:05;;;;;;;16.80;7.10;;;;;;;25.28;58.52;99714.06;4988136;28;20046;-67
2023/09/21 09:05:33;;;;;;;15.35;6.50;;;;;;;25.10;58.58;99717.88;4965367;28;20147;-67
2023/09/21 09:07:59;;;;;;;16.90;7.70;;;;;;;25.07;59.18;99709.41;5013206;28;20397;-68
2023/09/21 09:10:26;;;;;;;11.10;7.30;;;;;;;25.09;58.61;99716.25;4996763;28;20065;-68
2023/09/21 09:13:05;;;;;;;16.55;7.65;;;;;;;25.03;59.31;99717.25;4964278;28;20042;-67
2023/09/21 09:15:34;;;;;;;18.38;7.65;;;;;;;24.98;60.05;99714.44;4964352;28;20046;-67
2023/09/21 09:18:03;;;;;;;17.42;7.60;;;;;;;25.02;60.85;99720.22;4979208;28;20402;-69
2023/09/21 09:20:30;;;;;;;15.18;7.97;;;;;;;25.20;59.27;99728.09;4995527;28;20154;-67
2023/09/21 09:22:58;;;;;;;10.52;7.80;;;;;;;25.20;59.09;99723.44;4936531;29;20479;-67
2023/09/21 09:25:26;;;;;;;12.68;7.72;;;;;;;25.31;58.83;99725.25;4922135;29;20130;-67
2023/09/21 09:27:52;;;;;;;14.60;8.10;;;;;;;25.26;58.75;99727.91;4905865;29;20483;-68
2023/09/21 09:30:20;;;;;;;15.90;8.07;;;;;;;25.38;58.17;99720.50;4905815;29;20093;-69
2023/09/21 09:32:47;;;;;;;20.92;8.50;;;;;;;25.48;58.43;99719.81;4921967;29;20075;-68
2023/09/21 09:35:13;;;;;;;14.10;7.68;;;;;;;25.60;58.29;99721.31;4921295;29;20055;-67
2023/09/21 09:37:40;;;;;;;17.20;7.80;;;;;;;25.69;58.26;99717.09;4921456;29;20054;-67
2023/09/21 09:40:24;;;;;;;20.50;8.65;;;;;;;25.70;57.77;99716.00;4905845;29;20055;-68
2023/09/21 09:42:54;;;;;;;25.33;8.20;;;;;;;25.91;57.27;99731.47;4918090;29;20044;-68
2023/09/21 09:45:28;;;;;;;27.65;9.10;;;;;;;25.95;57.04;99729.09;4887753;29;20066;-69
2023/09/21 09:48:01;;;;;;;14.65;7.90;;;;;;;25.75;57.54;99721.50;4921226;29;20113;-68
2023/09/21 09:50:36;;;;;;;19.55;8.07;;;;;;;26.22;56.64;99724.50;4905907;29;20142;-67
2023/09/21 09:53:07;;;;;;;15.68;8.27;;;;;;;26.36;55.95;99732.00;4922045;28;20061;-67
2023/09/21 09:55:35;;;;;;;15.95;8.60;;;;;;;26.48;55.54;99726.38;4939502;28;20487;-67
2023/09/21 09:58:03;;;;;;;19.45;9.32;;;;;;;26.54;54.41;99735.44;4939282;28;20054;-68
2023/09/21 10:00:37;;;;;;;41.22;10.07;;;;;;;26.60;54.07;99742.56;4940774;28;20059;-68
2023/09/21 10:03:07;;;;;;;58.33;12.57;;;;;;;26.84;53.48;99746.59;4938467;28;20106;-67
2023/09/21 10:05:36;;;;;;;36.20;9.82;;;;;;;26.82;53.50;99741.41;4908945;28;20141;-68
2023/09/21 10:08:05;;;;;;;19.85;8.45;;;;;;;26.80;53.16;99748.22;4907641;28;20059;-67
2023/09/21 10:10:46;;;;;;;28.60;10.10;;;;;;;26.81;52.69;99753.41;4971786;28;20061;-67
2023/09/21 10:13:12;;;;;;;21.67;9.80;;;;;;;26.77;52.33;99748.75;4955400;28;20055;-67
2023/09/21 10:15:39;;;;;;;23.85;9.25;;;;;;;26.66;52.70;99753.28;4920536;29;20110;-67
2023/09/21 10:18:06;;;;;;;14.32;8.85;;;;;;;26.86;52.84;99752.63;4914219;29;20082;-68
2023/09/21 10:20:36;;;;;;;17.98;8.98;;;;;;;26.84;52.16;99750.16;4867516;29;20405;-68
2023/09/21 10:23:09;;;;;;;19.38;9.48;;;;;;;27.04;51.65;99752.22;4867517;29;20214;-68
2023/09/21 10:25:44;;;;;;;14.65;8.70;;;;;;;27.23;51.81;99753.44;4883654;29;20056;-68
2023/09/21 10:28:28;;;;;;;19.27;9.30;;;;;;;27.42;50.65;99755.50;4867683;29;20366;-68
2023/09/21 10:31:11;;;;;;;24.50;10.05;;;;;;;27.69;49.80;99753.44;4882459;29;20302;-68
2023/09/21 10:33:56;;;;;;;23.83;10.32;;;;;;;27.99;48.61;99750.88;4898211;29;20052;-67
2023/09/21 10:36:28;;;;;;;20.25;9.85;;;;;;;28.11;48.23;99749.81;4896710;29;20461;-69
2023/09/21 10:39:10;;;;;;;27.10;10.18;;;;;;;28.47;46.72;99752.38;4894653;29;20063;-68
2023/09/21 10:41:45;;;;;;;21.05;10.18;;;;;;;28.41;46.90;99752.59;4935523;29;20222;-68
2023/09/21 10:44:53;;;;;;;29.88;11.00;;;;;;;28.95;46.21;99759.22;4910294;29;20053;-68
2023/09/21 10:47:35;;;;;;;25.25;11.20;;;;;;;30.68;42.32;99740.75;4964484;28;20547;-68
2023/09/21 10:50:34;;;;;;;30.20;13.57;;;;;;;31.24;40.20;99750.16;4986818;28;20065;-68
2023/09/21 10:53:00;;;;;;;25.15;12.25;;;;;;;31.09;39.48;99747.59;4920997;28;20141;-69
2023/09/21 10:55:27;;;;;;;24.15;10.73;;;;;;;30.86;39.48;99745.59;4918095;28;20066;-68
2023/09/21 10:57:57;;;;;;;23.02;10.15;;;;;;;30.74;39.86;99739.63;4964902;28;20464;-70
2023/09/21 11:00:25;;;;;;;23.83;10.98;;;;;;;30.80;39.90;99744.81;4954842;28;20183;-69
2023/09/21 11:02:53;;;;;;;19.17;9.35;;;;;;;30.41;40.17;99746.75;4922948;28;20046;-68
2023/09/21 11:05:21;;;;;;;29.02;13.75;;;;;;;30.35;40.00;99745.13;4918072;29;20142;-68
2023/09/21 11:07:52;;;;;;;17.88;10.10;;;;;;;30.46;40.42;99748.63;4919911;29;20099;-69
2023/09/21 11:10:19;;;;;;;21.15;11.75;;;;;;;30.24;40.13;99742.72;4919896;29;20051;-68
2023/09/21 11:12:45;;;;;;;30.92;11.65;;;;;;;30.12;40.41;99736.75;4935589;29;20043;-68
2023/09/21 11:15:14;;;;;;;23.70;10.25;;;;;;;30.87;39.90;99739.81;4935784;29;20055;-68
2023/09/21 11:17:46;;;;;;;22.70;12.20;;;;;;;31.56;38.66;99742.16;4936021;29;20065;-68
2023/09/21 11:20:19;;;;;;;20.17;11.02;;;;;;;31.66;37.95;99742.03;4951623;29;20099;-68
2023/09/21 11:22:46;;;;;;;20.67;11.13;;;;;;;31.74;38.25;99748.78;4935759;29;20335;-68
2023/09/21 11:25:14;;;;;;;19.27;9.82;;;;;;;31.50;38.37;99739.75;4919897;29;20538;-67
2023/09/21 11:27:41;;;;;;;16.88;9.65;;;;;;;31.35;38.54;99745.41;4920153;29;20131;-67
2023/09/21 11:30:10;;;;;;;17.33;9.07;;;;;;;31.10;38.94;99735.50;4919719;29;20047;-67
2023/09/21 11:32:47;;;;;;;16.48;8.57;;;;;;;30.84;39.09;99736.84;4888596;29;20375;-67
2023/09/21 11:35:17;;;;;;;22.58;10.40;;;;;;;30.59;39.47;99737.81;5010833;28;20496;-68